sensor_id;sensor_type;location;lat;lon;timestamp;P1;durP1;ratioP1;P2;durP2;ratioP2
16624;SDS011;8426;48.496;9.098;2024-01-15T00:04:57;17.53;;;6.97;;
16624;SDS011;8426;48.496;9.098;2024-01-15T00:10:04;21.03;;;7.97;;
16624;SDS011;8426;48.496;9.098;2024-01-15T00:15:08;20.30;;;7.30;;
16624;SDS011;8426;48.496;9.098;2024-01-15T00:20:12;17.33;;;7.50;;
16624;SDS011;8426;48.496;9.098;2024-01-15T00:25:18;18.20;;;7.00;;
16624;SDS011;8426;48.496;9.098;2024-01-15T00:30:22;18.67;;;7.93;;
16624;SDS011;8426;48.496;9.098;2024-01-15T00:35:26;21.57;;;8.23;;
16624;SDS011;8426;48.496;9.098;2024-01-15T00:40:31;24.27;;;7.53;;
16624;SDS011;8426;48.496;9.098;2024-01-15T00:45:35;22.03;;;7.73;;
16624;SDS011;8426;48.496;9.098;2024-01-15T00:50:39;17.70;;;7.17;;
16624;SDS011;8426;48.496;9.098;2024-01-15T00:55:44;18.43;;;7.57;;
16624;SDS011;8426;48.496;9.098;2024-01-15T01:00:48;24.40;;;7.77;;
16624;SDS011;8426;48.496;9.098;2024-01-15T01:05:51;18.60;;;6.77;;
16624;SDS011;8426;48.496;9.098;2024-01-15T01:10:57;16.47;;;6.33;;
16624;SDS011;8426;48.496;9.098;2024-01-15T01:16:01;18.57;;;7.67;;
16624;SDS011;8426;48.496;9.098;2024-01-15T01:21:05;20.63;;;7.60;;
16624;SDS011;8426;48.496;9.098;2024-01-15T01:26:10;20.23;;;7.47;;
16624;SDS011;8426;48.496;9.098;2024-01-15T01:31:18;18.57;;;7.43;;
16624;SDS011;8426;48.496;9.098;2024-01-15T01:36:21;18.83;;;7.13;;
16624;SDS011;8426;48.496;9.098;2024-01-15T01:41:26;20.07;;;6.80;;
16624;SDS011;8426;48.496;9.098;2024-01-15T01:46:30;22.27;;;7.70;;
16624;SDS011;8426;48.496;9.098;2024-01-15T01:51:37;17.03;;;7.27;;
16624;SDS011;8426;48.496;9.098;2024-01-15T01:56:43;21.13;;;7.43;;
16624;SDS011;8426;48.496;9.098;2024-01-15T02:01:47;23.53;;;6.73;;
16624;SDS011;8426;48.496;9.098;2024-01-15T02:06:52;19.37;;;7.60;;
16624;SDS011;8426;48.496;9.098;2024-01-15T02:11:57;20.73;;;7.63;;
16624;SDS011;8426;48.496;9.098;2024-01-15T02:17:02;20.90;;;7.00;;
16624;SDS011;8426;48.496;9.098;2024-01-15T02:22:06;22.33;;;6.90;;
16624;SDS011;8426;48.496;9.098;2024-01-15T02:27:11;17.77;;;6.50;;
16624;SDS011;8426;48.496;9.098;2024-01-15T02:32:15;20.60;;;7.00;;
16624;SDS011;8426;48.496;9.098;2024-01-15T02:37:20;21.20;;;7.47;;
16624;SDS011;8426;48.496;9.098;2024-01-15T02:42:25;17.00;;;6.27;;
16624;SDS011;8426;48.496;9.098;2024-01-15T02:47:29;22.97;;;5.90;;
16624;SDS011;8426;48.496;9.098;2024-01-15T02:52:33;14.97;;;5.97;;
16624;SDS011;8426;48.496;9.098;2024-01-15T02:57:38;14.07;;;5.80;;
16624;SDS011;8426;48.496;9.098;2024-01-15T03:02:44;16.23;;;6.10;;
16624;SDS011;8426;48.496;9.098;2024-01-15T03:07:49;18.37;;;5.90;;
16624;SDS011;8426;48.496;9.098;2024-01-15T03:12:58;15.50;;;5.80;;
16624;SDS011;8426;48.496;9.098;2024-01-15T03:18:02;19.93;;;6.63;;
16624;SDS011;8426;48.496;9.098;2024-01-15T03:23:07;20.00;;;6.17;;
16624;SDS011;8426;48.496;9.098;2024-01-15T03:28:13;20.07;;;6.43;;
16624;SDS011;8426;48.496;9.098;2024-01-15T03:33:18;19.37;;;6.13;;
16624;SDS011;8426;48.496;9.098;2024-01-15T03:38:22;19.60;;;6.17;;
16624;SDS011;8426;48.496;9.098;2024-01-15T03:43:28;14.30;;;5.60;;
16624;SDS011;8426;48.496;9.098;2024-01-15T03:48:31;18.70;;;6.57;;
16624;SDS011;8426;48.496;9.098;2024-01-15T03:53:42;19.33;;;7.20;;
16624;SDS011;8426;48.496;9.098;2024-01-15T03:58:47;21.30;;;6.43;;
16624;SDS011;8426;48.496;9.098;2024-01-15T04:03:51;21.27;;;6.57;;
16624;SDS011;8426;48.496;9.098;2024-01-15T04:09:02;19.70;;;6.90;;
16624;SDS011;8426;48.496;9.098;2024-01-15T04:14:10;21.00;;;7.43;;
16624;SDS011;8426;48.496;9.098;2024-01-15T04:19:13;22.40;;;6.93;;
16624;SDS011;8426;48.496;9.098;2024-01-15T04:24:17;18.33;;;6.57;;
16624;SDS011;8426;48.496;9.098;2024-01-15T04:29:22;24.07;;;7.30;;
16624;SDS011;8426;48.496;9.098;2024-01-15T04:34:26;17.17;;;6.47;;
16624;SDS011;8426;48.496;9.098;2024-01-15T04:39:29;19.03;;;7.17;;
16624;SDS011;8426;48.496;9.098;2024-01-15T04:44:35;18.07;;;6.43;;
16624;SDS011;8426;48.496;9.098;2024-01-15T04:49:47;22.50;;;7.40;;
16624;SDS011;8426;48.496;9.098;2024-01-15T04:54:51;19.60;;;6.50;;
16624;SDS011;8426;48.496;9.098;2024-01-15T04:59:56;19.23;;;7.17;;
16624;SDS011;8426;48.496;9.098;2024-01-15T05:05:01;18.93;;;6.73;;
16624;SDS011;8426;48.496;9.098;2024-01-15T05:10:11;17.57;;;6.87;;
16624;SDS011;8426;48.496;9.098;2024-01-15T05:15:16;22.17;;;7.03;;
16624;SDS011;8426;48.496;9.098;2024-01-15T05:20:21;20.97;;;7.57;;
16624;SDS011;8426;48.496;9.098;2024-01-15T05:25:26;18.00;;;7.47;;
16624;SDS011;8426;48.496;9.098;2024-01-15T05:30:31;19.87;;;6.90;;
16624;SDS011;8426;48.496;9.098;2024-01-15T05:35:42;17.33;;;6.90;;
16624;SDS011;8426;48.496;9.098;2024-01-15T05:40:47;15.60;;;6.23;;
16624;SDS011;8426;48.496;9.098;2024-01-15T05:45:53;20.53;;;6.67;;
16624;SDS011;8426;48.496;9.098;2024-01-15T05:50:59;17.07;;;5.87;;
16624;SDS011;8426;48.496;9.098;2024-01-15T05:56:05;15.67;;;6.40;;
16624;SDS011;8426;48.496;9.098;2024-01-15T06:01:10;18.80;;;6.20;;
16624;SDS011;8426;48.496;9.098;2024-01-15T06:06:14;17.70;;;7.60;;
16624;SDS011;8426;48.496;9.098;2024-01-15T06:11:20;18.03;;;6.90;;
16624;SDS011;8426;48.496;9.098;2024-01-15T06:16:25;16.43;;;6.20;;
16624;SDS011;8426;48.496;9.098;2024-01-15T06:21:35;21.43;;;7.37;;
16624;SDS011;8426;48.496;9.098;2024-01-15T06:26:43;21.20;;;7.10;;
16624;SDS011;8426;48.496;9.098;2024-01-15T06:31:51;18.63;;;6.67;;
16624;SDS011;8426;48.496;9.098;2024-01-15T06:36:57;16.87;;;6.47;;
16624;SDS011;8426;48.496;9.098;2024-01-15T06:42:01;18.73;;;7.13;;
16624;SDS011;8426;48.496;9.098;2024-01-15T06:47:06;17.13;;;6.90;;
16624;SDS011;8426;48.496;9.098;2024-01-15T06:52:10;20.80;;;7.17;;
16624;SDS011;8426;48.496;9.098;2024-01-15T06:57:15;19.63;;;6.30;;
16624;SDS011;8426;48.496;9.098;2024-01-15T07:02:20;16.63;;;6.20;;
16624;SDS011;8426;48.496;9.098;2024-01-15T07:07:24;18.47;;;8.50;;
16624;SDS011;8426;48.496;9.098;2024-01-15T07:12:30;15.40;;;5.30;;
16624;SDS011;8426;48.496;9.098;2024-01-15T07:17:35;12.03;;;5.03;;
16624;SDS011;8426;48.496;9.098;2024-01-15T07:22:41;14.73;;;5.03;;
16624;SDS011;8426;48.496;9.098;2024-01-15T07:27:44;14.80;;;4.63;;
16624;SDS011;8426;48.496;9.098;2024-01-15T07:32:50;12.23;;;4.80;;
16624;SDS011;8426;48.496;9.098;2024-01-15T07:37:54;11.73;;;4.67;;
16624;SDS011;8426;48.496;9.098;2024-01-15T07:42:58;11.93;;;4.67;;
16624;SDS011;8426;48.496;9.098;2024-01-15T07:48:04;12.57;;;4.53;;
16624;SDS011;8426;48.496;9.098;2024-01-15T07:53:08;10.27;;;4.20;;
16624;SDS011;8426;48.496;9.098;2024-01-15T07:58:11;12.63;;;4.10;;
16624;SDS011;8426;48.496;9.098;2024-01-15T08:03:18;11.87;;;4.50;;
16624;SDS011;8426;48.496;9.098;2024-01-15T08:08:22;8.03;;;4.13;;
16624;SDS011;8426;48.496;9.098;2024-01-15T08:13:26;7.80;;;3.37;;
16624;SDS011;8426;48.496;9.098;2024-01-15T08:18:31;9.13;;;3.47;;
16624;SDS011;8426;48.496;9.098;2024-01-15T08:23:35;9.97;;;3.73;;
16624;SDS011;8426;48.496;9.098;2024-01-15T08:28:39;5.87;;;2.97;;
16624;SDS011;8426;48.496;9.098;2024-01-15T08:33:45;6.73;;;2.70;;
16624;SDS011;8426;48.496;9.098;2024-01-15T08:38:48;6.67;;;2.43;;
16624;SDS011;8426;48.496;9.098;2024-01-15T08:43:54;8.20;;;2.53;;
16624;SDS011;8426;48.496;9.098;2024-01-15T08:48:59;7.00;;;3.13;;
16624;SDS011;8426;48.496;9.098;2024-01-15T08:54:03;9.03;;;3.03;;
16624;SDS011;8426;48.496;9.098;2024-01-15T08:59:06;6.73;;;2.90;;
16624;SDS011;8426;48.496;9.098;2024-01-15T09:04:11;6.00;;;2.33;;
16624;SDS011;8426;48.496;9.098;2024-01-15T09:09:16;5.17;;;2.13;;
16624;SDS011;8426;48.496;9.098;2024-01-15T09:14:20;4.53;;;1.97;;
16624;SDS011;8426;48.496;9.098;2024-01-15T09:19:38;2.93;;;1.90;;
16624;SDS011;8426;48.496;9.098;2024-01-15T09:24:42;4.07;;;1.80;;
16624;SDS011;8426;48.496;9.098;2024-01-15T09:29:45;4.83;;;1.73;;
16624;SDS011;8426;48.496;9.098;2024-01-15T09:34:50;4.63;;;1.80;;
16624;SDS011;8426;48.496;9.098;2024-01-15T09:39:54;6.27;;;1.70;;
16624;SDS011;8426;48.496;9.098;2024-01-15T09:44:58;5.37;;;1.63;;
16624;SDS011;8426;48.496;9.098;2024-01-15T09:50:04;3.70;;;1.40;;
16624;SDS011;8426;48.496;9.098;2024-01-15T09:55:09;1.63;;;1.20;;
16624;SDS011;8426;48.496;9.098;2024-01-15T10:00:17;4.13;;;1.30;;
16624;SDS011;8426;48.496;9.098;2024-01-15T10:05:22;2.83;;;1.10;;
16624;SDS011;8426;48.496;9.098;2024-01-15T10:10:26;2.97;;;1.30;;
16624;SDS011;8426;48.496;9.098;2024-01-15T10:15:33;1.73;;;0.90;;
16624;SDS011;8426;48.496;9.098;2024-01-15T10:20:40;2.37;;;1.13;;
16624;SDS011;8426;48.496;9.098;2024-01-15T10:25:44;1.47;;;0.90;;
16624;SDS011;8426;48.496;9.098;2024-01-15T10:30:49;1.83;;;1.10;;
16624;SDS011;8426;48.496;9.098;2024-01-15T10:35:56;2.70;;;1.40;;
16624;SDS011;8426;48.496;9.098;2024-01-15T10:41:00;4.10;;;1.33;;
16624;SDS011;8426;48.496;9.098;2024-01-15T10:46:06;2.87;;;1.27;;
16624;SDS011;8426;48.496;9.098;2024-01-15T10:51:11;3.53;;;1.33;;
16624;SDS011;8426;48.496;9.098;2024-01-15T10:56:17;2.47;;;1.40;;
16624;SDS011;8426;48.496;9.098;2024-01-15T11:01:21;2.93;;;1.30;;
16624;SDS011;8426;48.496;9.098;2024-01-15T11:06:40;5.73;;;1.40;;
16624;SDS011;8426;48.496;9.098;2024-01-15T11:11:46;2.83;;;1.63;;
16624;SDS011;8426;48.496;9.098;2024-01-15T11:16:55;4.77;;;1.40;;
16624;SDS011;8426;48.496;9.098;2024-01-15T11:22:02;4.03;;;1.67;;
16624;SDS011;8426;48.496;9.098;2024-01-15T11:27:08;3.83;;;1.80;;
16624;SDS011;8426;48.496;9.098;2024-01-15T11:32:11;3.70;;;1.70;;
16624;SDS011;8426;48.496;9.098;2024-01-15T11:37:16;6.03;;;2.10;;
16624;SDS011;8426;48.496;9.098;2024-01-15T11:42:20;6.37;;;1.90;;
16624;SDS011;8426;48.496;9.098;2024-01-15T11:58:36;4.70;;;2.17;;
16624;SDS011;8426;48.496;9.098;2024-01-15T12:03:40;4.43;;;2.10;;
16624;SDS011;8426;48.496;9.098;2024-01-15T12:08:45;3.67;;;1.90;;
16624;SDS011;8426;48.496;9.098;2024-01-15T12:13:49;4.07;;;2.10;;
16624;SDS011;8426;48.496;9.098;2024-01-15T12:18:55;5.53;;;2.00;;
16624;SDS011;8426;48.496;9.098;2024-01-15T12:24:01;4.70;;;2.30;;
16624;SDS011;8426;48.496;9.098;2024-01-15T12:29:06;6.97;;;2.83;;
16624;SDS011;8426;48.496;9.098;2024-01-15T12:34:09;4.40;;;2.13;;
16624;SDS011;8426;48.496;9.098;2024-01-15T12:39:15;8.60;;;2.90;;
16624;SDS011;8426;48.496;9.098;2024-01-15T12:44:18;5.67;;;2.90;;
16624;SDS011;8426;48.496;9.098;2024-01-15T12:49:23;6.17;;;3.00;;
16624;SDS011;8426;48.496;9.098;2024-01-15T12:54:28;7.93;;;2.73;;
16624;SDS011;8426;48.496;9.098;2024-01-15T12:59:32;6.83;;;2.73;;
16624;SDS011;8426;48.496;9.098;2024-01-15T13:04:36;5.53;;;2.53;;
16624;SDS011;8426;48.496;9.098;2024-01-15T13:09:41;7.00;;;3.20;;
16624;SDS011;8426;48.496;9.098;2024-01-15T13:14:45;5.03;;;2.40;;
16624;SDS011;8426;48.496;9.098;2024-01-15T13:19:49;8.97;;;3.13;;
16624;SDS011;8426;48.496;9.098;2024-01-15T13:24:55;8.80;;;3.73;;
16624;SDS011;8426;48.496;9.098;2024-01-15T13:29:58;7.07;;;2.97;;
16624;SDS011;8426;48.496;9.098;2024-01-15T13:35:02;6.83;;;3.10;;
16624;SDS011;8426;48.496;9.098;2024-01-15T13:40:13;7.87;;;3.33;;
16624;SDS011;8426;48.496;9.098;2024-01-15T13:45:19;8.90;;;3.30;;
16624;SDS011;8426;48.496;9.098;2024-01-15T13:50:23;11.07;;;2.93;;
16624;SDS011;8426;48.496;9.098;2024-01-15T13:55:28;6.60;;;3.17;;
16624;SDS011;8426;48.496;9.098;2024-01-15T14:00:32;5.00;;;2.77;;
16624;SDS011;8426;48.496;9.098;2024-01-15T14:05:37;7.57;;;3.20;;
16624;SDS011;8426;48.496;9.098;2024-01-15T14:10:43;9.70;;;3.50;;
16624;SDS011;8426;48.496;9.098;2024-01-15T14:15:46;8.77;;;3.27;;
16624;SDS011;8426;48.496;9.098;2024-01-15T14:20:51;9.00;;;3.93;;
16624;SDS011;8426;48.496;9.098;2024-01-15T14:25:57;7.40;;;3.57;;
16624;SDS011;8426;48.496;9.098;2024-01-15T14:31:02;8.03;;;3.87;;
16624;SDS011;8426;48.496;9.098;2024-01-15T14:36:07;9.23;;;2.97;;
16624;SDS011;8426;48.496;9.098;2024-01-15T14:41:12;12.30;;;3.50;;
16624;SDS011;8426;48.496;9.098;2024-01-15T14:46:19;9.33;;;3.07;;
16624;SDS011;8426;48.496;9.098;2024-01-15T14:51:23;7.23;;;3.10;;
16624;SDS011;8426;48.496;9.098;2024-01-15T14:56:30;6.23;;;3.20;;
16624;SDS011;8426;48.496;9.098;2024-01-15T15:01:34;9.80;;;3.37;;
16624;SDS011;8426;48.496;9.098;2024-01-15T15:06:38;8.57;;;3.67;;
16624;SDS011;8426;48.496;9.098;2024-01-15T15:11:43;8.87;;;3.57;;
16624;SDS011;8426;48.496;9.098;2024-01-15T15:16:47;8.50;;;3.70;;
16624;SDS011;8426;48.496;9.098;2024-01-15T15:21:50;11.57;;;4.00;;
16624;SDS011;8426;48.496;9.098;2024-01-15T15:26:56;6.30;;;3.20;;
16624;SDS011;8426;48.496;9.098;2024-01-15T15:32:00;9.37;;;3.00;;
16624;SDS011;8426;48.496;9.098;2024-01-15T15:37:04;5.80;;;2.20;;
16624;SDS011;8426;48.496;9.098;2024-01-15T15:47:20;4.10;;;2.27;;
16624;SDS011;8426;48.496;9.098;2024-01-15T15:52:25;3.93;;;1.93;;
16624;SDS011;8426;48.496;9.098;2024-01-15T15:57:31;4.03;;;2.23;;
16624;SDS011;8426;48.496;9.098;2024-01-15T16:02:39;5.77;;;2.33;;
16624;SDS011;8426;48.496;9.098;2024-01-15T16:07:57;5.43;;;2.63;;
16624;SDS011;8426;48.496;9.098;2024-01-15T16:13:02;4.97;;;2.43;;
16624;SDS011;8426;48.496;9.098;2024-01-15T16:18:06;3.90;;;2.33;;
16624;SDS011;8426;48.496;9.098;2024-01-15T16:23:29;7.37;;;2.70;;
16624;SDS011;8426;48.496;9.098;2024-01-15T16:28:56;5.70;;;2.13;;
16624;SDS011;8426;48.496;9.098;2024-01-15T16:34:03;8.27;;;2.93;;
16624;SDS011;8426;48.496;9.098;2024-01-15T16:39:09;6.03;;;2.73;;
16624;SDS011;8426;48.496;9.098;2024-01-15T16:44:18;5.05;;;2.80;;
16624;SDS011;8426;48.496;9.098;2024-01-15T16:49:22;3.80;;;2.17;;
16624;SDS011;8426;48.496;9.098;2024-01-15T16:54:28;4.00;;;2.17;;
16624;SDS011;8426;48.496;9.098;2024-01-15T16:59:42;8.43;;;2.57;;
16624;SDS011;8426;48.496;9.098;2024-01-15T17:04:48;7.97;;;2.97;;
16624;SDS011;8426;48.496;9.098;2024-01-15T17:09:51;4.50;;;2.47;;
16624;SDS011;8426;48.496;9.098;2024-01-15T17:14:58;3.33;;;2.10;;
16624;SDS011;8426;48.496;9.098;2024-01-15T17:20:05;5.70;;;2.33;;
16624;SDS011;8426;48.496;9.098;2024-01-15T17:25:10;3.53;;;2.20;;
16624;SDS011;8426;48.496;9.098;2024-01-15T17:30:22;5.57;;;2.70;;
16624;SDS011;8426;48.496;9.098;2024-01-15T17:35:26;4.87;;;2.20;;
16624;SDS011;8426;48.496;9.098;2024-01-15T17:40:35;5.97;;;2.80;;
16624;SDS011;8426;48.496;9.098;2024-01-15T17:45:45;5.33;;;2.43;;
16624;SDS011;8426;48.496;9.098;2024-01-15T17:50:48;4.17;;;2.30;;
16624;SDS011;8426;48.496;9.098;2024-01-15T17:56:09;10.80;;;3.20;;
16624;SDS011;8426;48.496;9.098;2024-01-15T18:01:16;4.80;;;2.50;;
16624;SDS011;8426;48.496;9.098;2024-01-15T18:06:21;4.87;;;2.83;;
16624;SDS011;8426;48.496;9.098;2024-01-15T18:11:28;5.30;;;2.30;;
16624;SDS011;8426;48.496;9.098;2024-01-15T18:16:33;5.00;;;2.37;;
16624;SDS011;8426;48.496;9.098;2024-01-15T18:21:37;4.97;;;2.67;;
16624;SDS011;8426;48.496;9.098;2024-01-15T18:26:41;6.17;;;2.50;;
16624;SDS011;8426;48.496;9.098;2024-01-15T18:31:46;11.37;;;3.30;;
16624;SDS011;8426;48.496;9.098;2024-01-15T18:36:50;4.77;;;2.40;;
16624;SDS011;8426;48.496;9.098;2024-01-15T18:41:55;5.60;;;2.57;;
16624;SDS011;8426;48.496;9.098;2024-01-15T18:47:00;6.67;;;2.43;;
16624;SDS011;8426;48.496;9.098;2024-01-15T18:52:04;5.27;;;2.20;;
16624;SDS011;8426;48.496;9.098;2024-01-15T18:57:11;5.00;;;2.40;;
16624;SDS011;8426;48.496;9.098;2024-01-15T19:02:16;5.10;;;2.23;;
16624;SDS011;8426;48.496;9.098;2024-01-15T19:07:20;6.17;;;2.30;;
16624;SDS011;8426;48.496;9.098;2024-01-15T19:12:23;4.83;;;2.27;;
16624;SDS011;8426;48.496;9.098;2024-01-15T19:17:30;4.67;;;2.40;;
16624;SDS011;8426;48.496;9.098;2024-01-15T19:22:34;5.70;;;2.50;;
16624;SDS011;8426;48.496;9.098;2024-01-15T19:27:38;7.03;;;2.23;;
16624;SDS011;8426;48.496;9.098;2024-01-15T19:32:46;4.03;;;2.30;;
16624;SDS011;8426;48.496;9.098;2024-01-15T19:37:50;3.90;;;2.13;;
16624;SDS011;8426;48.496;9.098;2024-01-15T19:42:54;5.87;;;2.53;;
16624;SDS011;8426;48.496;9.098;2024-01-15T19:48:00;4.57;;;2.20;;
16624;SDS011;8426;48.496;9.098;2024-01-15T19:53:06;7.87;;;2.27;;
16624;SDS011;8426;48.496;9.098;2024-01-15T19:58:10;4.17;;;2.53;;
16624;SDS011;8426;48.496;9.098;2024-01-15T20:03:16;5.73;;;2.50;;
16624;SDS011;8426;48.496;9.098;2024-01-15T20:08:19;6.23;;;2.10;;
16624;SDS011;8426;48.496;9.098;2024-01-15T20:13:23;6.27;;;2.47;;
16624;SDS011;8426;48.496;9.098;2024-01-15T20:18:28;4.47;;;2.43;;
16624;SDS011;8426;48.496;9.098;2024-01-15T20:23:32;5.63;;;2.60;;
16624;SDS011;8426;48.496;9.098;2024-01-15T20:28:55;5.70;;;2.07;;
16624;SDS011;8426;48.496;9.098;2024-01-15T20:34:00;4.17;;;2.20;;
16624;SDS011;8426;48.496;9.098;2024-01-15T20:39:04;4.87;;;2.50;;
16624;SDS011;8426;48.496;9.098;2024-01-15T20:44:08;7.17;;;2.53;;
16624;SDS011;8426;48.496;9.098;2024-01-15T20:49:14;5.23;;;2.70;;
16624;SDS011;8426;48.496;9.098;2024-01-15T20:54:18;5.50;;;2.57;;
16624;SDS011;8426;48.496;9.098;2024-01-15T20:59:22;6.93;;;2.93;;
16624;SDS011;8426;48.496;9.098;2024-01-15T21:04:28;6.63;;;2.07;;
16624;SDS011;8426;48.496;9.098;2024-01-15T21:09:32;5.23;;;2.77;;
16624;SDS011;8426;48.496;9.098;2024-01-15T21:14:38;6.07;;;2.63;;
16624;SDS011;8426;48.496;9.098;2024-01-15T21:19:46;11.10;;;3.17;;
16624;SDS011;8426;48.496;9.098;2024-01-15T21:24:49;5.40;;;2.70;;
16624;SDS011;8426;48.496;9.098;2024-01-15T21:29:53;4.23;;;2.13;;
16624;SDS011;8426;48.496;9.098;2024-01-15T21:34:58;7.70;;;2.47;;
16624;SDS011;8426;48.496;9.098;2024-01-15T21:40:03;5.17;;;2.47;;
16624;SDS011;8426;48.496;9.098;2024-01-15T21:45:09;4.13;;;2.20;;
16624;SDS011;8426;48.496;9.098;2024-01-15T21:50:15;3.87;;;2.20;;
16624;SDS011;8426;48.496;9.098;2024-01-15T21:55:19;4.90;;;2.77;;
16624;SDS011;8426;48.496;9.098;2024-01-15T22:00:23;3.77;;;2.07;;
16624;SDS011;8426;48.496;9.098;2024-01-15T22:05:28;6.23;;;2.50;;
16624;SDS011;8426;48.496;9.098;2024-01-15T22:10:32;5.13;;;2.43;;
16624;SDS011;8426;48.496;9.098;2024-01-15T22:15:35;8.10;;;2.87;;
16624;SDS011;8426;48.496;9.098;2024-01-15T22:20:40;3.83;;;1.90;;
16624;SDS011;8426;48.496;9.098;2024-01-15T22:25:44;6.20;;;2.60;;
16624;SDS011;8426;48.496;9.098;2024-01-15T22:30:49;5.20;;;2.13;;
16624;SDS011;8426;48.496;9.098;2024-01-15T22:35:56;4.83;;;2.50;;
16624;SDS011;8426;48.496;9.098;2024-01-15T22:41:01;5.70;;;2.60;;
16624;SDS011;8426;48.496;9.098;2024-01-15T22:46:05;5.37;;;2.20;;
16624;SDS011;8426;48.496;9.098;2024-01-15T22:51:10;4.70;;;2.50;;
16624;SDS011;8426;48.496;9.098;2024-01-15T22:56:17;8.67;;;3.40;;
16624;SDS011;8426;48.496;9.098;2024-01-15T23:01:21;4.00;;;2.23;;
16624;SDS011;8426;48.496;9.098;2024-01-15T23:06:26;6.00;;;2.80;;
16624;SDS011;8426;48.496;9.098;2024-01-15T23:11:30;5.13;;;2.73;;
16624;SDS011;8426;48.496;9.098;2024-01-15T23:16:34;4.27;;;2.50;;
16624;SDS011;8426;48.496;9.098;2024-01-15T23:21:42;5.03;;;2.70;;
16624;SDS011;8426;48.496;9.098;2024-01-15T23:26:45;4.93;;;2.57;;
16624;SDS011;8426;48.496;9.098;2024-01-15T23:31:50;3.80;;;2.10;;
16624;SDS011;8426;48.496;9.098;2024-01-15T23:36:55;6.23;;;2.47;;
16624;SDS011;8426;48.496;9.098;2024-01-15T23:42:00;6.63;;;2.43;;
16624;SDS011;8426;48.496;9.098;2024-01-15T23:47:04;5.80;;;2.03;;
16624;SDS011;8426;48.496;9.098;2024-01-15T23:52:22;4.47;;;1.97;;
16624;SDS011;8426;48.496;9.098;2024-01-15T23:57:26;3.93;;;2.03;;
